Time;durP1;ratioP1;P1;durP2;ratioP2;P2;SDS_P1;SDS_P2;PMS_P1;PMS_P2;Temp;Humidity;BMP_temperature;BMP_pressure;BME280_temperature;BME280_humidity;BME280_pressure;Samples;Min_cycle;Max_cycle;Signal;HPM_P1;HPM_P2
2023/09/12 00:02:07;;;;;;;5.57;5.07;;;23.70;99.90;;;;;;4942607;28;20193;-71
2023/09/12 00:04:32;;;;;;;6.47;5.22;;;23.70;99.90;;;;;;4958354;28;20189;-72
2023/09/12 00:06:58;;;;;;;5.88;5.28;;;23.70;99.90;;;;;;4958295;28;20241;-70
2023/09/12 00:09:24;;;;;;;5.57;4.95;;;23.70;99.90;;;;;;4958521;28;20193;-70
2023/09/12 00:11:49;;;;;;;6.15;5.30;;;23.70;99.90;;;;;;4966196;28;20185;-70
2023/09/12 00:14:17;;;;;;;4.97;4.57;;;23.70;99.90;;;;;;4979504;28;20572;-70
2023/09/12 00:16:43;;;;;;;5.75;5.18;;;23.70;99.90;;;;;;4942340;28;20226;-70
2023/09/12 00:19:09;;;;;;;5.07;4.68;;;23.70;99.90;;;;;;4947347;28;20197;-70
2023/09/12 00:21:34;;;;;;;5.72;5.15;;;23.70;99.90;;;;;;4951909;28;20204;-70
2023/09/12 00:24:00;;;;;;;5.57;5.00;;;23.70;99.90;;;;;;4957857;28;20182;-71
2023/09/12 00:26:26;;;;;;;5.68;5.18;;;23.70;99.90;;;;;;4957841;28;20282;-70
2023/09/12 00:28:53;;;;;;;5.20;4.70;;;23.70;99.90;;;;;;4979401;28;20197;-70
2023/09/12 00:31:19;;;;;;;5.15;4.65;;;23.70;99.90;;;;;;4942365;28;20321;-70
2023/09/12 00:33:45;;;;;;;5.05;4.60;;;23.70;99.90;;;;;;4939387;29;20220;-70
2023/09/12 00:36:10;;;;;;;5.70;5.20;;;23.70;99.90;;;;;;4937801;28;20308;-70
2023/09/12 00:38:36;;;;;;;5.90;5.30;;;23.60;99.90;;;;;;4941919;28;20194;-70
2023/09/12 00:41:02;;;;;;;5.03;4.63;;;23.70;99.90;;;;;;4945876;28;20277;-70
2023/09/12 00:43:27;;;;;;;5.35;4.85;;;23.70;99.90;;;;;;4957763;28;20244;-70
2023/09/12 00:45:53;;;;;;;5.32;4.82;;;23.70;99.90;;;;;;4957469;28;20209;-70
2023/09/12 00:48:21;;;;;;;5.60;5.10;;;23.70;99.90;;;;;;4957891;28;20189;-70
2023/09/12 00:50:50;;;;;;;5.22;4.70;;;23.60;99.90;;;;;;4944916;28;20189;-70
2023/09/12 00:53:18;;;;;;;5.45;4.95;;;23.60;99.90;;;;;;4974695;28;20194;-70
2023/09/12 00:55:51;;;;;;;4.88;4.47;;;23.60;99.90;;;;;;4954126;28;20245;-70
2023/09/12 00:58:18;;;;;;;5.35;4.90;;;23.60;99.90;;;;;;4970343;28;20192;-70
2023/09/12 01:00:44;;;;;;;5.65;5.07;;;23.60;99.90;;;;;;4953944;28;20293;-70
2023/09/12 01:03:10;;;;;;;5.90;5.28;;;23.60;99.90;;;;;;4957431;28;20190;-70
2023/09/12 01:05:36;;;;;;;5.60;5.05;;;23.60;99.90;;;;;;4956928;28;20275;-70
2023/09/12 01:08:03;;;;;;;5.70;5.20;;;23.70;99.90;;;;;;4957048;28;20301;-70
2023/09/12 01:10:29;;;;;;;5.47;4.97;;;23.60;99.90;;;;;;4941643;28;20244;-70
2023/09/12 01:12:55;;;;;;;5.15;4.75;;;23.60;99.90;;;;;;4960939;28;20213;-70
2023/09/12 01:15:21;;;;;;;5.70;5.20;;;23.70;99.90;;;;;;4940769;28;20609;-70
2023/09/12 01:17:47;;;;;;;5.22;4.72;;;23.60;99.90;;;;;;4940964;28;20280;-70
2023/09/12 01:20:30;;;;;;;5.30;4.80;;;23.60;99.90;;;;;;4944380;28;20202;-70
2023/09/12 01:23:28;;;;;;;5.50;5.00;;;23.60;99.90;;;;;;4941285;28;20541;-70
2023/09/12 01:25:57;;;;;;;5.38;4.88;;;23.60;99.90;;;;;;4938842;28;20224;-70
2023/09/12 01:28:25;;;;;;;5.40;4.97;;;23.60;99.90;;;;;;4940874;28;20190;-70
2023/09/12 01:30:53;;;;;;;6.25;4.88;;;23.60;99.90;;;;;;4942659;28;20193;-70
2023/09/12 01:33:20;;;;;;;5.18;4.68;;;23.60;99.90;;;;;;4940628;28;20198;-70
2023/09/12 01:35:46;;;;;;;5.25;4.85;;;23.60;99.90;;;;;;4940311;28;20206;-70
2023/09/12 01:38:14;;;;;;;5.32;4.82;;;23.60;99.90;;;;;;4957063;28;20212;-70
2023/09/12 01:40:50;;;;;;;4.85;4.45;;;23.60;99.90;;;;;;4956832;28;20198;-70
2023/09/12 01:43:21;;;;;;;5.38;4.88;;;23.60;99.90;;;;;;4955840;28;20193;-71
2023/09/12 01:45:55;;;;;;;5.28;4.78;;;23.60;99.90;;;;;;4956800;28;20272;-70
2023/09/12 01:48:33;;;;;;;5.55;5.05;;;23.60;99.90;;;;;;4937713;29;20178;-70
2023/09/12 01:51:01;;;;;;;5.40;5.00;;;23.60;99.90;;;;;;4962377;28;20195;-70
2023/09/12 01:53:29;;;;;;;4.93;4.53;;;23.60;99.90;;;;;;4956272;28;20196;-70
2023/09/12 01:55:58;;;;;;;5.75;5.18;;;23.60;99.90;;;;;;4940225;28;20272;-70
2023/09/12 01:58:26;;;;;;;5.40;4.90;;;23.60;99.90;;;;;;4937249;28;20237;-71
2023/09/12 02:00:52;;;;;;;5.03;4.60;;;23.60;99.90;;;;;;4948181;28;20205;-70
2023/09/12 02:03:19;;;;;;;5.15;4.63;;;23.60;99.90;;;;;;4958721;28;20248;-71
2023/09/12 02:05:45;;;;;;;5.80;5.30;;;23.60;99.90;;;;;;4945048;28;20202;-74
2023/09/12 02:08:11;;;;;;;4.93;4.53;;;23.60;99.90;;;;;;4958856;28;20209;-70
2023/09/12 02:10:37;;;;;;;5.35;4.95;;;23.50;99.90;;;;;;4958066;28;20195;-70
2023/09/12 02:13:03;;;;;;;5.72;5.15;;;23.60;99.90;;;;;;4956461;28;20196;-70
2023/09/12 02:15:28;;;;;;;4.68;4.28;;;23.60;99.90;;;;;;4955737;28;20213;-70
2023/09/12 02:17:54;;;;;;;5.30;4.80;;;23.60;99.90;;;;;;4956073;28;20252;-70
2023/09/12 02:20:20;;;;;;;6.05;5.13;;;23.60;99.90;;;;;;4956387;28;20193;-70
2023/09/12 02:22:46;;;;;;;5.35;4.45;;;23.60;99.90;;;;;;4955789;28;20195;-70
2023/09/12 02:25:12;;;;;;;5.32;4.90;;;23.60;99.90;;;;;;4939820;28;20205;-70
2023/09/12 02:27:37;;;;;;;5.40;4.88;;;23.60;99.90;;;;;;4972138;28;20539;-70
2023/09/12 02:30:04;;;;;;;5.75;5.18;;;23.50;99.90;;;;;;4956153;28;20691;-70
2023/09/12 02:32:30;;;;;;;4.95;4.53;;;23.50;99.90;;;;;;4971849;28;20193;-70
2023/09/12 02:34:57;;;;;;;5.65;5.15;;;23.60;99.90;;;;;;4944834;28;20173;-70
2023/09/12 02:37:23;;;;;;;5.05;4.55;;;23.60;99.90;;;;;;4939986;28;20566;-71
2023/09/12 02:39:49;;;;;;;5.05;4.60;;;23.50;99.90;;;;;;4939667;28;20244;-70
2023/09/12 02:42:15;;;;;;;5.18;4.68;;;23.60;99.90;;;;;;4955700;28;20576;-70
2023/09/12 02:44:40;;;;;;;5.15;4.75;;;23.60;99.90;;;;;;4943479;28;20340;-70
2023/09/12 02:47:06;;;;;;;5.38;4.88;;;23.60;99.90;;;;;;4940821;28;20292;-70
2023/09/12 02:49:32;;;;;;;4.95;4.55;;;23.50;99.90;;;;;;4944433;28;20260;-70
2023/09/12 02:51:58;;;;;;;4.90;4.50;;;23.50;99.90;;;;;;4939577;28;20275;-70
2023/09/12 02:54:23;;;;;;;5.18;4.68;;;23.60;99.90;;;;;;4947794;28;20201;-70
2023/09/12 02:56:49;;;;;;;5.38;4.80;;;23.60;99.90;;;;;;4960488;28;20244;-70
2023/09/12 02:59:15;;;;;;;5.18;4.78;;;23.60;99.90;;;;;;4955479;28;20185;-70
2023/09/12 03:01:41;;;;;;;4.88;4.47;;;23.50;99.90;;;;;;4949686;28;20741;-70
2023/09/12 03:04:07;;;;;;;5.10;4.60;;;23.60;99.90;;;;;;4936664;28;20187;-70
2023/09/12 03:06:33;;;;;;;4.90;4.50;;;23.60;99.90;;;;;;4935038;28;20217;-70
2023/09/12 03:08:59;;;;;;;5.05;4.57;;;23.60;99.90;;;;;;4963826;28;20201;-70
2023/09/12 03:11:27;;;;;;;4.68;4.28;;;23.50;99.90;;;;;;4957921;28;20202;-70
2023/09/12 03:13:53;;;;;;;5.60;4.90;;;23.50;99.90;;;;;;4939218;28;20189;-70
2023/09/12 03:16:19;;;;;;;5.15;4.63;;;23.50;99.90;;;;;;4947359;28;20297;-70
2023/09/12 03:18:45;;;;;;;5.10;4.68;;;23.50;99.90;;;;;;4955361;28;20200;-70
2023/09/12 03:21:10;;;;;;;4.78;4.22;;;23.50;99.90;;;;;;4933371;28;20208;-70
2023/09/12 03:23:36;;;;;;;5.43;4.93;;;23.50;99.90;;;;;;4971618;28;20244;-70
2023/09/12 03:26:04;;;;;;;5.50;5.00;;;23.50;99.90;;;;;;4955108;28;20687;-70
2023/09/12 03:28:31;;;;;;;4.70;4.35;;;23.60;99.90;;;;;;4955440;28;20196;-70
2023/09/12 03:31:13;;;;;;;5.82;4.32;;;23.50;99.90;;;;;;4939352;28;20217;-70
2023/09/12 03:33:40;;;;;;;5.30;4.90;;;23.50;99.90;;;;;;4948593;29;20262;-70
2023/09/12 03:36:08;;;;;;;4.88;4.47;;;23.50;99.90;;;;;;4948060;28;20249;-70
2023/09/12 03:38:35;;;;;;;4.78;4.38;;;23.50;99.90;;;;;;4956992;28;20216;-71
2023/09/12 03:41:01;;;;;;;4.55;4.15;;;23.50;99.90;;;;;;4955327;28;20277;-70
2023/09/12 03:43:27;;;;;;;5.15;4.45;;;23.50;99.90;;;;;;4955504;28;20276;-70
2023/09/12 03:45:54;;;;;;;4.43;4.05;;;23.50;99.90;;;;;;4954917;28;20218;-70
2023/09/12 03:48:20;;;;;;;4.90;4.50;;;23.50;99.90;;;;;;4955391;28;20182;-70
2023/09/12 03:50:46;;;;;;;4.68;4.28;;;23.50;99.90;;;;;;4955031;28;20653;-71
2023/09/12 03:53:15;;;;;;;4.97;4.47;;;23.50;99.90;;;;;;4939515;28;20189;-70
2023/09/12 03:55:40;;;;;;;4.75;4.35;;;23.50;99.90;;;;;;4955354;28;20226;-70
2023/09/12 03:58:06;;;;;;;4.47;4.18;;;23.50;99.90;;;;;;4958625;28;20189;-70
2023/09/12 04:00:33;;;;;;;4.35;4.05;;;23.50;99.90;;;;;;4958537;28;20225;-70
2023/09/12 04:02:58;;;;;;;4.90;4.50;;;23.50;99.90;;;;;;4958364;28;20260;-70
2023/09/12 04:05:26;;;;;;;5.28;4.88;;;23.50;99.90;;;;;;4942128;28;20209;-70
2023/09/12 04:07:52;;;;;;;5.35;4.85;;;23.50;99.90;;;;;;4958574;28;20261;-70
2023/09/12 04:10:20;;;;;;;4.90;4.50;;;23.50;99.90;;;;;;4958420;28;20651;-70
2023/09/12 04:12:46;;;;;;;4.93;4.43;;;23.50;99.90;;;;;;4964402;28;20247;-70
2023/09/12 04:15:12;;;;;;;5.15;4.65;;;23.50;99.90;;;;;;4958320;28;20653;-71
2023/09/12 04:17:39;;;;;;;4.50;4.18;;;23.50;99.90;;;;;;4942498;28;20182;-70
2023/09/12 04:20:06;;;;;;;5.15;4.57;;;23.50;99.90;;;;;;4938963;28;20214;-71
2023/09/12 04:22:32;;;;;;;5.22;4.72;;;23.50;99.90;;;;;;4970474;28;20186;-70
2023/09/12 04:24:58;;;;;;;4.80;4.40;;;23.50;99.90;;;;;;4957703;28;20289;-70
2023/09/12 04:27:24;;;;;;;5.03;4.60;;;23.50;99.90;;;;;;4942001;28;20284;-70
2023/09/12 04:29:50;;;;;;;4.57;4.10;;;23.50;99.90;;;;;;4958128;28;20603;-70
2023/09/12 04:32:23;;;;;;;4.75;4.35;;;23.50;99.90;;;;;;4974464;28;20193;-70
2023/09/12 04:34:49;;;;;;;4.90;4.35;;;23.50;99.90;;;;;;4942455;28;20201;-69
2023/09/12 04:37:15;;;;;;;4.82;4.43;;;23.40;99.90;;;;;;4958072;28;20275;-70
2023/09/12 04:39:41;;;;;;;4.57;4.18;;;23.50;99.90;;;;;;4958150;28;20186;-69
2023/09/12 04:42:07;;;;;;;6.03;4.38;;;23.50;99.90;;;;;;4941844;28;20190;-70
2023/09/12 04:44:39;;;;;;;5.13;4.70;;;23.50;99.90;;;;;;4941885;28;20685;-69
2023/09/12 04:47:05;;;;;;;4.30;3.90;;;23.50;99.90;;;;;;4957479;28;20214;-69
2023/09/12 04:49:31;;;;;;;4.93;4.53;;;23.40;99.90;;;;;;4957899;28;20244;-69
2023/09/12 04:51:57;;;;;;;4.82;4.43;;;23.40;99.90;;;;;;4957909;28;20197;-69
2023/09/12 04:54:23;;;;;;;5.03;4.45;;;23.40;99.90;;;;;;4964654;28;20204;-70
2023/09/12 04:56:49;;;;;;;4.32;3.92;;;23.40;99.90;;;;;;4946999;28;20217;-69
2023/09/12 04:59:15;;;;;;;5.47;4.35;;;23.50;99.90;;;;;;4972235;28;20560;-70
2023/09/12 05:01:41;;;;;;;4.85;4.40;;;23.50;99.90;;;;;;4972404;28;20182;-70
2023/09/12 05:04:06;;;;;;;5.22;4.82;;;23.40;99.90;;;;;;4957738;28;20188;-69
2023/09/12 05:06:33;;;;;;;4.57;4.18;;;23.50;99.90;;;;;;4942273;28;20205;-71
2023/09/12 05:08:59;;;;;;;4.97;4.50;;;23.50;99.90;;;;;;4942005;28;20190;-70
2023/09/12 05:11:25;;;;;;;5.13;4.72;;;23.40;99.90;;;;;;4941316;28;20189;-70
2023/09/12 05:13:52;;;;;;;5.30;4.45;;;23.40;99.90;;;;;;4941553;28;20193;-69
2023/09/12 05:16:18;;;;;;;5.03;4.63;;;23.40;99.90;;;;;;4956714;28;20209;-70
2023/09/12 05:18:44;;;;;;;4.72;4.32;;;23.40;99.90;;;;;;4942045;28;20201;-71
2023/09/12 05:21:10;;;;;;;4.70;4.30;;;23.40;99.90;;;;;;4941556;28;20185;-69
2023/09/12 05:23:35;;;;;;;5.80;5.07;;;23.40;99.90;;;;;;4957166;28;20195;-70
2023/09/12 05:26:02;;;;;;;5.28;4.38;;;23.40;99.90;;;;;;4948886;28;20213;-70
2023/09/12 05:28:28;;;;;;;4.95;4.55;;;23.40;99.90;;;;;;4957105;28;20198;-70
2023/09/12 05:30:54;;;;;;;5.80;4.93;;;23.40;99.90;;;;;;4941185;28;20196;-70
2023/09/12 05:33:20;;;;;;;5.65;4.75;;;23.40;99.90;;;;;;4956926;28;20628;-70
2023/09/12 05:35:47;;;;;;;5.50;5.00;;;23.40;99.90;;;;;;4940925;28;20214;-71
2023/09/12 05:38:13;;;;;;;5.00;4.53;;;23.40;99.90;;;;;;4937015;29;20381;-70
2023/09/12 05:40:39;;;;;;;5.55;5.00;;;23.40;99.90;;;;;;4961069;28;20190;-70
2023/09/12 05:43:05;;;;;;;5.78;5.28;;;23.40;99.90;;;;;;4955833;28;20664;-70
2023/09/12 05:45:32;;;;;;;5.88;4.70;;;23.40;99.90;;;;;;4947685;29;20217;-70
2023/09/12 05:47:59;;;;;;;5.30;4.85;;;23.40;99.90;;;;;;4955111;28;20194;-70
2023/09/12 05:50:25;;;;;;;5.95;5.35;;;23.40;99.90;;;;;;4940768;28;20276;-70
2023/09/12 05:52:51;;;;;;;4.85;4.45;;;23.40;99.90;;;;;;4956168;28;20195;-71
2023/09/12 05:55:18;;;;;;;5.47;4.97;;;23.40;99.90;;;;;;4956149;28;20221;-70
2023/09/12 05:57:44;;;;;;;6.50;4.90;;;23.40;99.90;;;;;;4948485;28;20225;-71
2023/09/12 06:00:11;;;;;;;6.50;5.25;;;23.40;99.90;;;;;;4973619;28;20280;-70
2023/09/12 06:02:42;;;;;;;5.40;4.90;;;23.40;99.90;;;;;;4956242;28;20255;-70
2023/09/12 06:05:08;;;;;;;5.57;5.10;;;23.40;99.90;;;;;;4939870;28;20210;-70
2023/09/12 06:07:35;;;;;;;6.25;5.43;;;23.30;99.90;;;;;;4953871;28;20200;-70
2023/09/12 06:10:01;;;;;;;5.43;4.90;;;23.40;99.90;;;;;;4957647;28;20240;-71
2023/09/12 06:12:27;;;;;;;5.43;4.93;;;23.40;99.90;;;;;;4940338;28;20272;-70
2023/09/12 06:14:55;;;;;;;5.18;4.75;;;23.40;99.90;;;;;;4955798;28;20203;-71
2023/09/12 06:17:22;;;;;;;5.28;4.88;;;23.40;99.90;;;;;;4955952;28;20313;-70
2023/09/12 06:19:51;;;;;;;6.20;4.88;;;23.40;99.90;;;;;;4955153;28;20245;-70
2023/09/12 06:22:18;;;;;;;5.85;5.35;;;23.40;99.90;;;;;;4943698;28;20185;-70
2023/09/12 06:24:44;;;;;;;5.93;5.43;;;23.30;99.90;;;;;;4959472;28;20252;-70
2023/09/12 06:27:13;;;;;;;6.43;5.00;;;23.40;99.90;;;;;;4955785;28;20201;-70
2023/09/12 06:29:39;;;;;;;6.20;5.65;;;23.40;99.90;;;;;;4955984;28;20204;-70
2023/09/12 06:32:05;;;;;;;6.13;5.10;;;23.40;99.90;;;;;;4955804;28;20197;-71
2023/09/12 06:34:30;;;;;;;6.32;5.75;;;23.30;99.90;;;;;;4939678;28;20181;-71
2023/09/12 06:36:56;;;;;;;5.45;4.95;;;23.40;99.90;;;;;;4951184;28;20249;-70
2023/09/12 06:39:24;;;;;;;6.03;5.43;;;23.40;99.90;;;;;;4975518;28;20190;-70
2023/09/12 06:41:50;;;;;;;5.75;5.22;;;23.40;99.90;;;;;;4955829;28;20200;-70
2023/09/12 06:44:15;;;;;;;5.97;5.38;;;23.40;99.90;;;;;;4972667;28;20205;-70
2023/09/12 06:46:41;;;;;;;6.00;5.40;;;23.40;99.90;;;;;;4939892;28;20221;-70
2023/09/12 06:49:07;;;;;;;5.95;5.45;;;23.40;99.90;;;;;;4953246;28;20205;-70
2023/09/12 06:51:32;;;;;;;5.55;5.05;;;23.40;99.90;;;;;;4939773;28;20200;-70
2023/09/12 06:53:59;;;;;;;5.63;5.13;;;23.40;99.90;;;;;;4941403;28;20200;-73
2023/09/12 06:56:25;;;;;;;5.35;4.88;;;23.40;99.90;;;;;;4945518;28;20225;-70
2023/09/12 06:58:53;;;;;;;6.03;5.35;;;23.40;99.90;;;;;;4941856;28;20241;-71
2023/09/12 07:01:18;;;;;;;5.70;4.93;;;23.40;99.90;;;;;;4965823;28;20220;-70
2023/09/12 07:03:44;;;;;;;5.85;5.35;;;23.40;99.90;;;;;;4956008;28;20205;-70
2023/09/12 07:06:10;;;;;;;6.05;5.45;;;23.40;99.90;;;;;;4955264;28;20209;-70
2023/09/12 07:08:36;;;;;;;6.03;5.43;;;23.40;99.90;;;;;;4946692;29;20202;-70
2023/09/12 07:11:05;;;;;;;6.43;5.80;;;23.50;99.90;;;;;;4970267;28;20217;-70
2023/09/12 07:13:33;;;;;;;6.15;5.60;;;23.40;99.90;;;;;;4955425;28;20213;-70
2023/09/12 07:15:59;;;;;;;6.32;5.53;;;23.50;99.90;;;;;;4946011;28;20217;-70
2023/09/12 07:18:25;;;;;;;6.25;5.57;;;23.40;99.90;;;;;;4954206;28;20194;-73
2023/09/12 07:21:02;;;;;;;5.65;5.20;;;23.50;99.90;;;;;;4975471;28;20201;-71
2023/09/12 07:23:28;;;;;;;5.88;5.38;;;23.50;99.90;;;;;;4972662;28;20197;-70
2023/09/12 07:25:59;;;;;;;6.45;5.57;;;23.50;99.90;;;;;;4938982;28;20249;-70
2023/09/12 07:28:26;;;;;;;6.60;5.85;;;23.50;99.90;;;;;;4939659;28;20212;-70
2023/09/12 07:30:54;;;;;;;6.13;5.53;;;23.50;99.90;;;;;;4956263;28;20200;-71
2023/09/12 07:33:20;;;;;;;6.05;5.55;;;23.50;99.90;;;;;;4959103;28;20672;-71
2023/09/12 07:35:47;;;;;;;7.25;5.93;;;23.50;99.90;;;;;;4976190;28;20260;-70
2023/09/12 07:38:15;;;;;;;6.68;6.03;;;23.50;99.90;;;;;;4958918;28;20193;-70
2023/09/12 07:40:42;;;;;;;6.63;6.03;;;23.50;99.90;;;;;;4958817;28;20280;-70
2023/09/12 07:43:09;;;;;;;6.25;5.75;;;23.50;99.90;;;;;;4945692;28;20189;-71
2023/09/12 07:45:37;;;;;;;5.90;5.35;;;23.50;99.90;;;;;;4953727;29;20218;-70
2023/09/12 07:48:12;;;;;;;6.95;5.57;;;23.50;99.90;;;;;;4959063;28;20217;-70
2023/09/12 07:50:38;;;;;;;5.55;5.07;;;23.50;99.90;;;;;;4964220;28;20663;-71
2023/09/12 07:53:07;;;;;;;6.57;6.07;;;23.50;99.90;;;;;;4976827;28;20804;-71
2023/09/12 07:55:45;;;;;;;6.50;5.90;;;23.50;99.90;;;;;;4958293;28;20248;-70
2023/09/12 07:58:16;;;;;;;6.70;6.10;;;23.50;99.90;;;;;;4958291;28;20204;-69
2023/09/12 08:00:42;;;;;;;6.60;6.00;;;23.60;99.90;;;;;;4958557;28;20288;-70
2023/09/12 08:03:08;;;;;;;6.18;5.57;;;23.60;99.90;;;;;;4976209;28;20270;-70
2023/09/12 08:05:33;;;;;;;6.72;5.72;;;23.60;99.90;;;;;;4962777;28;20283;-70
2023/09/12 08:08:00;;;;;;;7.05;6.35;;;23.60;99.90;;;;;;4958661;28;20195;-70
2023/09/12 08:10:26;;;;;;;6.28;5.75;;;23.60;99.90;;;;;;4966759;28;20194;-70
2023/09/12 08:12:52;;;;;;;6.45;5.95;;;23.60;99.90;;;;;;4939949;28;20198;-70
2023/09/12 08:15:19;;;;;;;6.07;5.47;;;23.70;99.90;;;;;;4977794;28;20213;-70
2023/09/12 08:17:45;;;;;;;6.43;5.82;;;23.70;99.90;;;;;;4945753;28;20263;-70
2023/09/12 08:20:11;;;;;;;6.55;6.05;;;23.70;99.90;;;;;;4940505;28;20193;-70
2023/09/12 08:22:38;;;;;;;6.68;6.07;;;23.60;99.90;;;;;;4962770;28;20288;-70
2023/09/12 08:25:06;;;;;;;6.38;5.78;;;23.70;99.90;;;;;;4958815;28;20205;-70
2023/09/12 08:27:32;;;;;;;6.43;5.93;;;23.60;99.90;;;;;;4958023;28;20204;-71
2023/09/12 08:29:58;;;;;;;6.40;5.90;;;23.60;99.90;;;;;;4958016;28;20190;-70
2023/09/12 08:32:24;;;;;;;5.57;5.07;;;23.60;99.90;;;;;;4958037;28;20202;-70
2023/09/12 08:34:49;;;;;;;6.53;5.93;;;23.70;99.90;;;;;;4938548;28;20187;-70
2023/09/12 08:37:15;;;;;;;6.60;5.82;;;23.70;99.90;;;;;;4963766;28;20217;-70
2023/09/12 08:39:44;;;;;;;6.07;5.57;;;23.60;99.90;;;;;;4975530;28;20198;-70
2023/09/12 08:42:16;;;;;;;5.93;5.28;;;23.70;99.90;;;;;;4947004;28;20194;-70
2023/09/12 08:44:43;;;;;;;5.63;5.13;;;23.70;99.90;;;;;;4974902;28;20224;-70
2023/09/12 08:47:11;;;;;;;6.45;5.85;;;23.70;99.90;;;;;;4941781;28;20748;-71
2023/09/12 08:49:37;;;;;;;6.43;5.88;;;23.70;99.90;;;;;;4957803;28;20243;-70
2023/09/12 08:52:06;;;;;;;5.88;5.28;;;23.70;99.90;;;;;;4957936;28;20198;-70
2023/09/12 08:54:33;;;;;;;5.88;5.20;;;23.70;99.90;;;;;;4950047;28;20273;-70
2023/09/12 08:57:03;;;;;;;5.90;5.40;;;23.70;99.90;;;;;;4957673;28;20267;-71
2023/09/12 08:59:31;;;;;;;6.13;5.53;;;23.70;99.90;;;;;;4968807;28;20193;-69
2023/09/12 09:01:59;;;;;;;6.30;5.70;;;23.70;99.90;;;;;;4948793;28;20197;-72
2023/09/12 09:04:29;;;;;;;5.82;5.32;;;23.70;99.90;;;;;;4957240;28;20305;-70
2023/09/12 09:06:57;;;;;;;6.22;5.72;;;23.80;99.90;;;;;;4977810;28;20217;-71
2023/09/12 09:09:24;;;;;;;5.85;5.38;;;23.80;99.90;;;;;;4958767;28;20194;-70
2023/09/12 09:11:50;;;;;;;5.80;5.38;;;23.70;99.90;;;;;;4952863;28;20198;-71
2023/09/12 09:14:16;;;;;;;6.38;5.78;;;23.70;99.90;;;;;;4957192;28;20251;-70
2023/09/12 09:16:42;;;;;;;6.40;5.90;;;23.70;99.90;;;;;;4941077;28;20222;-70
2023/09/12 09:19:10;;;;;;;5.68;5.18;;;23.70;99.90;;;;;;4943841;28;20189;-73
2023/09/12 09:21:37;;;;;;;6.05;5.45;;;23.80;99.90;;;;;;4943700;29;20204;-71
2023/09/12 09:24:09;;;;;;;6.30;5.80;;;23.70;99.90;;;;;;4961977;28;20196;-70
2023/09/12 09:26:50;;;;;;;6.32;5.82;;;23.70;99.90;;;;;;4936085;28;20669;-71
2023/09/12 09:29:21;;;;;;;6.95;6.35;;;23.70;99.90;;;;;;4947924;28;20186;-70
2023/09/12 09:31:50;;;;;;;6.20;5.60;;;23.70;99.90;;;;;;4938788;28;20197;-68
2023/09/12 09:34:21;;;;;;;6.00;5.50;;;23.70;99.90;;;;;;4962589;28;20194;-70
2023/09/12 09:36:53;;;;;;;5.88;5.38;;;23.70;99.90;;;;;;4964869;28;20217;-70
2023/09/12 09:39:22;;;;;;;6.78;6.18;;;23.80;99.90;;;;;;4940962;28;20193;-70
2023/09/12 09:41:55;;;;;;;6.50;6.00;;;23.70;99.90;;;;;;4983912;28;20216;-71
2023/09/12 09:44:26;;;;;;;6.40;5.72;;;23.70;99.90;;;;;;4971830;28;20691;-71
2023/09/12 09:47:02;;;;;;;7.03;6.32;;;23.70;99.90;;;;;;4938154;28;20236;-70
2023/09/12 09:49:31;;;;;;;6.57;6.07;;;23.80;99.90;;;;;;4937683;28;20193;-70
2023/09/12 09:51:58;;;;;;;5.90;5.40;;;23.80;99.90;;;;;;4940556;28;20194;-71
2023/09/12 09:54:25;;;;;;;6.30;5.80;;;23.80;99.90;;;;;;4958005;28;20272;-71
2023/09/12 09:57:00;;;;;;;7.03;6.40;;;23.80;99.90;;;;;;4968637;28;20688;-70
2023/09/12 09:59:27;;;;;;;6.50;5.95;;;23.80;99.90;;;;;;4956652;28;20587;-70
2023/09/12 10:01:59;;;;;;;6.80;6.15;;;23.70;99.90;;;;;;4940401;28;20275;-71
2023/09/12 10:04:28;;;;;;;6.97;6.38;;;23.80;99.90;;;;;;4956267;28;20207;-70
2023/09/12 10:06:57;;;;;;;7.03;6.43;;;23.80;99.90;;;;;;4943314;28;20221;-70
2023/09/12 10:09:26;;;;;;;6.80;6.20;;;23.80;99.90;;;;;;4956298;28;20247;-69
2023/09/12 10:11:54;;;;;;;7.00;6.38;;;23.80;99.90;;;;;;4948229;28;20204;-70
2023/09/12 10:14:22;;;;;;;7.25;6.63;;;23.80;99.90;;;;;;4956366;28;20687;-70
2023/09/12 10:16:51;;;;;;;6.88;6.38;;;23.80;99.90;;;;;;4955817;28;20221;-70
2023/09/12 10:19:23;;;;;;;7.38;6.78;;;23.80;99.90;;;;;;4956257;28;20270;-70
2023/09/12 10:22:20;;;;;;;7.13;6.43;;;23.70;99.90;;;;;;4973383;28;20189;-70
2023/09/12 10:24:48;;;;;;;6.45;5.93;;;23.80;99.90;;;;;;4952511;28;20196;-70
2023/09/12 10:27:15;;;;;;;6.97;6.40;;;23.70;99.90;;;;;;4936942;28;20192;-70
2023/09/12 10:29:40;;;;;;;7.47;6.78;;;23.80;99.90;;;;;;4960096;28;20220;-69
2023/09/12 10:32:08;;;;;;;7.15;6.60;;;23.80;99.90;;;;;;4961308;28;20247;-69
2023/09/12 10:34:37;;;;;;;7.22;6.53;;;23.80;99.90;;;;;;4955743;28;20224;-70
2023/09/12 10:37:05;;;;;;;7.57;6.88;;;23.80;99.90;;;;;;4939105;28;20218;-70
2023/09/12 10:39:33;;;;;;;7.40;6.70;;;23.80;99.90;;;;;;4956445;28;20201;-70
2023/09/12 10:42:04;;;;;;;7.10;6.40;;;23.80;99.90;;;;;;4956031;28;20189;-70
2023/09/12 10:44:32;;;;;;;7.95;6.57;;;23.80;99.90;;;;;;4955461;28;20623;-70
2023/09/12 10:46:58;;;;;;;6.93;6.32;;;23.80;99.90;;;;;;4955437;28;20208;-70
2023/09/12 10:49:24;;;;;;;8.18;6.50;;;23.80;99.90;;;;;;4955547;28;20200;-70
2023/09/12 10:51:51;;;;;;;7.35;6.65;;;23.80;99.90;;;;;;4955696;28;20189;-70
2023/09/12 10:54:25;;;;;;;7.55;6.40;;;23.80;99.90;;;;;;4939539;28;20200;-70
2023/09/12 10:57:11;;;;;;;7.88;6.35;;;23.80;99.90;;;;;;4955435;28;20253;-69
2023/09/12 11:00:08;;;;;;;7.30;6.65;;;23.80;99.90;;;;;;4955460;28;20259;-70
2023/09/12 11:02:39;;;;;;;6.82;6.32;;;23.80;99.90;;;;;;4954914;28;20566;-70
2023/09/12 11:05:27;;;;;;;7.15;6.65;;;23.80;99.90;;;;;;4972361;28;20222;-70
2023/09/12 11:08:01;;;;;;;6.90;6.30;;;23.80;99.90;;;;;;4968736;28;20290;-70
2023/09/12 11:10:28;;;;;;;7.15;6.55;;;23.80;99.90;;;;;;4951449;28;20193;-70
2023/09/12 11:12:59;;;;;;;6.97;6.30;;;23.80;99.90;;;;;;4943499;28;20190;-70
2023/09/12 11:15:28;;;;;;;7.05;6.45;;;23.80;99.90;;;;;;4959187;28;20296;-70
2023/09/12 11:18:06;;;;;;;7.18;6.57;;;23.80;99.90;;;;;;4959346;28;20197;-70
2023/09/12 11:20:53;;;;;;;7.07;6.53;;;23.80;99.90;;;;;;4950736;28;20221;-70
2023/09/12 11:23:19;;;;;;;7.50;6.75;;;23.80;99.90;;;;;;4938103;28;20209;-70
2023/09/12 11:25:45;;;;;;;6.55;6.05;;;23.80;99.90;;;;;;4958972;28;20217;-70
2023/09/12 11:28:11;;;;;;;7.03;6.50;;;23.80;99.90;;;;;;4959455;28;20197;-70
2023/09/12 11:30:36;;;;;;;7.68;7.07;;;23.80;99.90;;;;;;4976392;28;20246;-70
2023/09/12 11:33:10;;;;;;;6.95;6.40;;;23.80;99.90;;;;;;4948686;28;20249;-71
2023/09/12 11:35:38;;;;;;;6.93;6.43;;;23.90;99.90;;;;;;4943154;29;20689;-70
2023/09/12 11:38:04;;;;;;;7.18;6.65;;;23.80;99.90;;;;;;4959128;28;20268;-70
2023/09/12 11:40:33;;;;;;;7.80;7.10;;;23.80;99.90;;;;;;4949985;28;20269;-70
2023/09/12 11:42:59;;;;;;;7.78;7.18;;;23.80;99.90;;;;;;4962337;28;20193;-70
2023/09/12 11:45:25;;;;;;;7.22;6.60;;;23.90;99.90;;;;;;4949396;28;20205;-70
2023/09/12 11:47:51;;;;;;;7.43;6.82;;;23.80;99.90;;;;;;4942857;29;20187;-70
2023/09/12 11:50:36;;;;;;;7.28;6.57;;;23.90;99.90;;;;;;4958936;28;20205;-70
2023/09/12 11:53:11;;;;;;;7.10;6.50;;;23.80;99.90;;;;;;4937025;28;20288;-70
2023/09/12 11:55:44;;;;;;;6.75;6.18;;;23.80;99.90;;;;;;4977928;28;20210;-70
2023/09/12 11:58:12;;;;;;;7.65;6.95;;;23.80;99.90;;;;;;4958733;28;20189;-70
2023/09/12 12:00:48;;;;;;;7.07;6.13;;;23.90;99.90;;;;;;4958332;28;20297;-70
2023/09/12 12:03:15;;;;;;;7.40;6.80;;;23.90;99.90;;;;;;4972436;28;20200;-69
2023/09/12 12:05:42;;;;;;;8.65;7.05;;;23.80;99.90;;;;;;4958344;28;20212;-69
2023/09/12 12:08:09;;;;;;;7.20;6.50;;;23.90;99.90;;;;;;4944934;28;20190;-70
2023/09/12 12:10:35;;;;;;;6.90;6.20;;;23.80;99.90;;;;;;4958231;28;20200;-71
2023/09/12 12:13:01;;;;;;;6.70;6.20;;;23.90;99.90;;;;;;4958363;28;20217;-71
2023/09/12 12:15:30;;;;;;;7.03;6.53;;;23.90;99.90;;;;;;4958304;28;20239;-70
2023/09/12 12:17:57;;;;;;;7.15;6.65;;;23.90;99.90;;;;;;4957257;28;20288;-71
2023/09/12 12:20:23;;;;;;;6.85;6.25;;;23.90;99.90;;;;;;4958657;28;20185;-71
2023/09/12 12:22:53;;;;;;;6.90;6.40;;;23.90;99.90;;;;;;4969311;28;20262;-71
2023/09/12 12:25:19;;;;;;;6.88;6.35;;;23.90;99.90;;;;;;4952836;28;20238;-71
2023/09/12 12:27:44;;;;;;;7.07;6.43;;;23.90;99.90;;;;;;4961830;28;20246;-71
2023/09/12 12:30:13;;;;;;;7.15;6.53;;;23.90;99.90;;;;;;4939346;28;20190;-71
2023/09/12 12:32:46;;;;;;;6.43;5.82;;;23.90;99.90;;;;;;4930640;28;20248;-71
2023/09/12 12:35:23;;;;;;;6.97;6.38;;;23.90;99.90;;;;;;4952943;28;20277;-71
2023/09/12 12:37:56;;;;;;;6.78;6.28;;;23.90;99.90;;;;;;4957531;28;20249;-71
2023/09/12 12:40:22;;;;;;;6.57;6.10;;;23.90;99.90;;;;;;4957971;28;20274;-69
2023/09/12 12:42:48;;;;;;;7.50;6.90;;;23.90;99.90;;;;;;4952658;28;20193;-71
2023/09/12 12:45:21;;;;;;;6.88;6.28;;;23.90;99.90;;;;;;4946462;28;20205;-70
2023/09/12 12:47:51;;;;;;;7.00;6.40;;;23.90;99.90;;;;;;4958623;28;20235;-72
2023/09/12 12:50:20;;;;;;;7.05;6.40;;;23.90;99.90;;;;;;4952265;28;20185;-70
2023/09/12 12:52:48;;;;;;;6.93;6.43;;;23.90;99.90;;;;;;4962178;28;20625;-70